Time;durP1;ratioP1;P1;durP2;ratioP2;P2;SDS_P1;SDS_P2;PMS_P1;PMS_P2;Temp;Humidity;BMP_temperature;BMP_pressure;BME280_temperature;BME280_humidity;BME280_pressure;Samples;Min_cycle;Max_cycle;Signal;HPM_P1;HPM_P2
2020/12/04 00:01:26;;;;;;;9.15;7.43;;;;;;;4.77;79.75;96602.72;5032060;28;20394;-92
2020/12/04 00:03:52;;;;;;;8.15;6.70;;;;;;;4.87;79.95;96609.56;5032561;28;20498;-92
2020/12/04 00:06:17;;;;;;;8.38;6.95;;;;;;;4.92;79.02;96607.31;5032389;28;20071;-92
2020/12/04 00:08:42;;;;;;;7.10;6.05;;;;;;;5.05;79.01;96605.00;5032504;28;20025;-92
2020/12/04 00:11:08;;;;;;;7.68;6.65;;;;;;;4.81;79.35;96600.63;5032678;28;20109;-92
2020/12/04 00:13:33;;;;;;;7.60;6.68;;;;;;;4.94;79.80;96584.56;5033761;28;20033;-91
2020/12/04 00:16:00;;;;;;;7.10;6.13;;;;;;;4.97;78.81;96592.81;5036384;28;20040;-91
2020/12/04 00:18:25;;;;;;;6.75;5.43;;;;;;;4.94;79.07;96579.38;5032937;28;20032;-92
2020/12/04 00:20:51;;;;;;;7.75;6.80;;;;;;;5.09;78.58;96582.91;5035576;28;20109;-93
2020/12/04 00:23:16;;;;;;;7.90;6.45;;;;;;;4.97;78.71;96576.41;5036718;28;20037;-93
2020/12/04 00:25:41;;;;;;;7.55;5.97;;;;;;;4.86;79.10;96587.13;5035780;28;20477;-93
2020/12/04 00:28:07;;;;;;;6.90;6.05;;;;;;;4.96;78.06;96583.41;5036047;28;20022;-92
2020/12/04 00:30:32;;;;;;;6.38;5.68;;;;;;;4.92;78.07;96583.91;5036049;28;20547;-93
2020/12/04 00:32:58;;;;;;;8.85;5.70;;;;;;;4.90;77.97;96568.47;5036593;28;20083;-92
2020/12/04 00:35:23;;;;;;;6.35;5.43;;;;;;;4.78;78.79;96567.19;5036310;28;20021;-92
2020/12/04 00:37:48;;;;;;;6.95;5.43;;;;;;;4.98;77.90;96578.06;5036296;28;20018;-92
2020/12/04 00:40:14;;;;;;;6.65;5.53;;;;;;;4.85;78.29;96570.75;5036044;28;20438;-93
2020/12/04 00:42:40;;;;;;;6.88;5.97;;;;;;;4.93;78.44;96575.94;5035915;28;20025;-93
2020/12/04 00:45:07;;;;;;;7.18;5.47;;;;;;;4.82;78.13;96572.84;5034714;28;20021;-93
2020/12/04 00:47:33;;;;;;;6.93;6.22;;;;;;;4.75;78.28;96563.09;5034417;28;20388;-93
2020/12/04 00:49:58;;;;;;;8.65;6.50;;;;;;;4.92;77.72;96576.13;5034559;28;20021;-92
2020/12/04 00:52:23;;;;;;;7.13;5.65;;;;;;;5.00;77.09;96572.72;5034681;28;20021;-92
2020/12/04 00:54:49;;;;;;;5.90;5.18;;;;;;;5.06;77.20;96582.44;5034479;28;20125;-93
2020/12/04 00:57:14;;;;;;;6.70;5.45;;;;;;;5.00;76.50;96578.72;5051093;28;20025;-93
2020/12/04 00:59:40;;;;;;;6.80;5.07;;;;;;;4.84;77.37;96586.47;5034616;28;20498;-93
2020/12/04 01:02:05;;;;;;;6.80;5.68;;;;;;;5.01;76.84;96588.13;5051479;28;20072;-94
2020/12/04 01:04:30;;;;;;;7.25;6.00;;;;;;;4.86;77.91;96580.16;5034432;28;20021;-93
2020/12/04 01:06:56;;;;;;;6.93;5.35;;;;;;;4.90;77.40;96578.06;5035593;28;20494;-93
2020/12/04 01:09:21;;;;;;;7.13;5.90;;;;;;;4.81;77.44;96563.44;5034434;28;20072;-93
2020/12/04 01:11:47;;;;;;;5.78;5.15;;;;;;;4.91;77.14;96583.06;5051236;28;20028;-93
2020/12/04 01:14:12;;;;;;;6.65;5.13;;;;;;;4.88;77.12;96570.44;5034670;28;20100;-93
2020/12/04 01:16:37;;;;;;;6.38;5.57;;;;;;;4.90;77.14;96565.06;5035269;28;20040;-93
2020/12/04 01:19:03;;;;;;;7.38;5.78;;;;;;;5.10;75.82;96568.94;5035966;28;20083;-92
2020/12/04 01:21:29;;;;;;;5.72;4.78;;;;;;;5.07;76.53;96558.84;5058205;28;20013;-93
2020/12/04 01:23:54;;;;;;;5.93;4.70;;;;;;;5.03;76.18;96554.97;5059608;28;20019;-92
2020/12/04 01:26:20;;;;;;;6.63;5.70;;;;;;;4.96;77.07;96564.41;5050543;28;20029;-92
2020/12/04 01:28:45;;;;;;;6.20;5.05;;;;;;;4.99;76.54;96553.66;5044576;28;20013;-93
2020/12/04 01:31:10;;;;;;;6.40;5.55;;;;;;;5.17;76.48;96561.28;5055514;28;20211;-93
2020/12/04 01:33:36;;;;;;;6.45;5.22;;;;;;;5.12;75.89;96577.41;5034349;28;20013;-93
2020/12/04 01:36:02;;;;;;;6.63;5.35;;;;;;;4.98;76.47;96567.66;5034194;28;20037;-93
2020/12/04 01:38:28;;;;;;;7.55;6.03;;;;;;;4.97;76.91;96571.22;5044441;28;20057;-93
2020/12/04 01:41:05;;;;;;;6.78;5.25;;;;;;;5.09;76.44;96556.09;5035128;28;20068;-94
2020/12/04 01:43:31;;;;;;;6.43;5.18;;;;;;;4.91;76.43;96564.09;5051722;28;20410;-93
2020/12/04 01:45:58;;;;;;;5.90;5.30;;;;;;;5.13;76.53;96567.81;5037588;28;20021;-94
2020/12/04 01:48:23;;;;;;;6.25;5.28;;;;;;;5.35;76.02;96574.94;5033988;28;20021;-93
2020/12/04 01:50:51;;;;;;;8.15;6.43;;;;;;;5.12;76.82;96566.19;5033443;28;20372;-93
2020/12/04 01:53:18;;;;;;;7.35;5.82;;;;;;;5.35;75.58;96561.09;5033800;28;20026;-93
2020/12/04 01:55:44;;;;;;;7.97;6.60;;;;;;;5.31;75.55;96580.63;5050389;28;20033;-94
2020/12/04 01:58:12;;;;;;;7.13;5.90;;;;;;;5.38;75.59;96572.97;5033849;28;20390;-92
2020/12/04 02:00:38;;;;;;;7.88;6.03;;;;;;;5.31;76.14;96571.03;5034873;28;20430;-94
2020/12/04 02:03:06;;;;;;;7.72;5.80;;;;;;;5.22;76.44;96568.63;5033904;28;20028;-93
2020/12/04 02:05:33;;;;;;;7.10;6.25;;;;;;;5.10;76.04;96568.16;5053267;28;20100;-93
2020/12/04 02:08:08;;;;;;;6.18;5.25;;;;;;;5.35;75.81;96563.69;5041730;28;20471;-93
2020/12/04 02:10:44;;;;;;;6.43;5.20;;;;;;;5.30;75.60;96560.81;5034461;28;20475;-93
2020/12/04 02:13:10;;;;;;;7.75;6.00;;;;;;;5.17;75.75;96556.09;5034411;28;20025;-94
2020/12/04 02:15:36;;;;;;;8.23;6.10;;;;;;;5.02;76.43;96562.97;5034342;28;20079;-94
2020/12/04 02:18:06;;;;;;;5.18;4.30;;;;;;;5.12;75.14;96551.41;5033003;28;20026;-94
2020/12/04 02:20:35;;;;;;;3.53;2.92;;;;;;;5.24;74.90;96566.66;5033283;28;20025;-95
2020/12/04 02:23:00;;;;;;;4.72;4.00;;;;;;;5.16;74.38;96547.47;5033279;28;20112;-94
2020/12/04 02:25:26;;;;;;;4.35;3.88;;;;;;;5.40;74.03;96563.22;5033444;28;20064;-94
2020/12/04 02:27:52;;;;;;;4.50;3.80;;;;;;;5.42;73.83;96564.66;5033092;28;20021;-93
2020/12/04 02:30:28;;;;;;;4.40;4.00;;;;;;;5.27;74.07;96553.31;5033161;28;20221;-93
2020/12/04 02:32:53;;;;;;;4.53;3.88;;;;;;;5.34;72.49;96549.09;5033077;28;20403;-94
2020/12/04 02:35:19;;;;;;;4.97;4.38;;;;;;;5.26;73.71;96538.69;5033147;28;20022;-93
2020/12/04 02:37:44;;;;;;;5.75;4.53;;;;;;;5.48;74.08;96548.38;5032832;28;20056;-94
2020/12/04 02:40:10;;;;;;;5.55;4.63;;;;;;;5.30;74.42;96546.00;5032818;28;20360;-94
2020/12/04 02:42:35;;;;;;;6.20;5.32;;;;;;;5.30;74.18;96550.41;5031922;28;20028;-93
2020/12/04 02:45:00;;;;;;;6.18;4.88;;;;;;;5.49;74.98;96554.41;5033657;28;20124;-92
2020/12/04 02:47:26;;;;;;;6.38;5.35;;;;;;;5.20;74.38;96547.97;5033520;28;20021;-93
2020/12/04 02:49:52;;;;;;;6.80;5.60;;;;;;;5.24;75.25;96551.06;5032780;28;20030;-94
2020/12/04 02:52:24;;;;;;;7.47;5.50;;;;;;;4.90;76.27;96552.06;5032825;28;20021;-93
2020/12/04 02:54:49;;;;;;;7.70;6.38;;;;;;;5.22;75.76;96551.22;5032804;28;20026;-93
2020/12/04 02:57:15;;;;;;;7.53;5.88;;;;;;;5.26;74.80;96551.72;5032090;28;20386;-94
2020/12/04 02:59:41;;;;;;;7.65;5.95;;;;;;;5.41;75.13;96549.22;5032376;28;20034;-94
2020/12/04 03:02:06;;;;;;;7.43;6.07;;;;;;;5.50;74.58;96549.03;5032424;28;20029;-94
2020/12/04 03:04:32;;;;;;;8.63;6.57;;;;;;;5.18;75.56;96555.13;5032721;28;20132;-94
2020/12/04 03:06:57;;;;;;;8.23;6.28;;;;;;;5.37;74.96;96546.13;5032575;28;20112;-94
2020/12/04 03:09:22;;;;;;;8.23;6.25;;;;;;;5.27;75.29;96543.75;5032493;28;20031;-93
2020/12/04 03:11:48;;;;;;;7.28;5.88;;;;;;;5.30;75.39;96553.00;5032434;28;20056;-94
2020/12/04 03:14:13;;;;;;;6.60;5.18;;;;;;;5.18;75.99;96559.53;5031977;28;20557;-92
2020/12/04 03:16:39;;;;;;;7.00;5.40;;;;;;;5.47;74.62;96548.56;5032605;28;20330;-94
2020/12/04 03:19:04;;;;;;;6.68;5.50;;;;;;;5.34;74.80;96551.69;5032427;28;20204;-94
2020/12/04 03:21:30;;;;;;;5.60;4.65;;;;;;;5.40;74.78;96539.81;5032571;28;20032;-93
2020/12/04 03:23:56;;;;;;;6.88;5.68;;;;;;;5.47;73.99;96545.94;5031985;28;20029;-95
2020/12/04 03:26:21;;;;;;;5.53;4.28;;;;;;;5.52;74.95;96551.47;5048576;28;20026;-94
2020/12/04 03:28:46;;;;;;;6.05;4.70;;;;;;;5.28;75.30;96562.75;5032033;28;20022;-94
2020/12/04 03:31:12;;;;;;;5.00;4.05;;;;;;;5.51;74.41;96560.25;5049031;28;20467;-94
2020/12/04 03:33:38;;;;;;;5.43;4.22;;;;;;;5.44;74.33;96554.91;5032193;28;20025;-94
2020/12/04 03:36:04;;;;;;;4.22;3.58;;;;;;;5.54;74.41;96552.13;5032266;28;20431;-94
2020/12/04 03:38:29;;;;;;;4.07;3.35;;;;;;;5.51;74.23;96550.66;5031978;28;20031;-94
2020/12/04 03:40:54;;;;;;;4.45;3.85;;;;;;;5.43;73.94;96550.69;5032222;28;20018;-95
2020/12/04 03:43:20;;;;;;;4.95;3.70;;;;;;;5.43;73.81;96550.69;5031770;28;20111;-94
2020/12/04 03:45:45;;;;;;;4.70;3.53;;;;;;;5.43;73.89;96547.25;5032375;28;20119;-95
2020/12/04 03:48:11;;;;;;;4.22;3.17;;;;;;;5.49;73.61;96546.59;5032737;28;20464;-94
2020/12/04 03:50:36;;;;;;;3.65;3.25;;;;;;;5.54;73.58;96539.91;5032261;28;20028;-94
2020/12/04 03:53:01;;;;;;;3.38;3.08;;;;;;;5.71;73.96;96553.69;5032117;28;20116;-94
2020/12/04 03:55:27;;;;;;;4.00;3.30;;;;;;;5.43;74.34;96549.88;5031688;28;20483;-94
2020/12/04 03:57:52;;;;;;;3.47;3.13;;;;;;;5.60;73.65;96543.63;5048403;28;20036;-94
2020/12/04 04:00:18;;;;;;;3.55;2.70;;;;;;;5.53;73.60;96537.50;5031725;28;20021;-94
2020/12/04 04:02:43;;;;;;;3.28;2.30;;;;;;;5.62;73.56;96551.28;5048369;28;20041;-94
2020/12/04 04:05:08;;;;;;;3.55;3.08;;;;;;;5.50;73.62;96528.22;5031726;28;20030;-95
2020/12/04 04:07:34;;;;;;;3.53;2.83;;;;;;;5.59;73.25;96536.84;5031698;28;20045;-94
2020/12/04 04:09:59;;;;;;;3.33;2.80;;;;;;;5.74;73.22;96548.13;5031522;28;20068;-94
2020/12/04 04:12:25;;;;;;;3.10;2.80;;;;;;;5.69;71.72;96541.84;5031745;28;20040;-95
2020/12/04 04:14:50;;;;;;;3.17;2.75;;;;;;;5.77;73.24;96557.44;5048118;28;20075;-94
2020/12/04 04:17:16;;;;;;;3.05;2.75;;;;;;;5.73;72.72;96543.94;5031734;28;20045;-94
2020/12/04 04:19:41;;;;;;;2.83;2.10;;;;;;;5.64;72.69;96551.94;5048396;28;20022;-94
2020/12/04 04:22:06;;;;;;;3.60;2.40;;;;;;;5.78;71.46;96548.63;5031893;28;20586;-95
2020/12/04 04:24:32;;;;;;;3.30;2.13;;;;;;;5.75;71.54;96549.78;5047954;28;20040;-94
2020/12/04 04:26:57;;;;;;;2.70;2.45;;;;;;;5.59;72.90;96549.00;5031660;28;20116;-94
2020/12/04 04:29:22;;;;;;;2.30;2.10;;;;;;;5.76;72.61;96555.78;5031658;28;20029;-95
2020/12/04 04:31:50;;;;;;;3.00;2.35;;;;;;;5.73;73.39;96537.91;5032051;28;20125;-95
2020/12/04 04:34:16;;;;;;;3.45;2.42;;;;;;;5.78;72.64;96555.63;5031845;28;20026;-94
2020/12/04 04:36:41;;;;;;;3.40;2.72;;;;;;;5.76;72.27;96568.81;5031772;28;20486;-94
2020/12/04 04:39:06;;;;;;;2.97;2.45;;;;;;;5.72;72.39;96570.91;5031728;28;20026;-95
2020/12/04 04:41:32;;;;;;;2.50;2.15;;;;;;;5.89;72.12;96558.66;5031725;28;20021;-94
2020/12/04 04:43:57;;;;;;;3.70;2.58;;;;;;;5.76;72.53;96563.59;5031395;28;20394;-95
2020/12/04 04:46:47;;;;;;;2.63;2.35;;;;;;;5.75;72.10;96573.19;5031284;28;20032;-95
2020/12/04 04:49:26;;;;;;;2.47;2.10;;;;;;;5.59;71.99;96568.06;5031299;28;20026;-95
2020/12/04 04:51:54;;;;;;;3.30;2.45;;;;;;;5.76;72.26;96574.00;5031683;28;20022;-94
2020/12/04 04:54:21;;;;;;;2.80;2.15;;;;;;;5.89;72.19;96581.28;5048410;28;20026;-95
2020/12/04 04:56:48;;;;;;;2.50;2.00;;;;;;;5.60;72.49;96574.88;5031547;28;20029;-95
2020/12/04 04:59:14;;;;;;;2.72;2.10;;;;;;;5.84;72.35;96575.78;5048338;28;20096;-96
2020/12/04 05:01:39;;;;;;;4.15;2.35;;;;;;;5.68;73.60;96574.03;5031255;28;20051;-94
2020/12/04 05:04:04;;;;;;;2.75;1.90;;;;;;;5.97;71.67;96581.28;5048226;28;20191;-95
2020/12/04 05:06:35;;;;;;;2.05;1.80;;;;;;;6.01;71.40;96581.78;5031965;28;20029;-95
2020/12/04 05:09:05;;;;;;;1.73;1.50;;;;;;;5.95;71.73;96586.66;5034905;28;20090;-95
2020/12/04 05:11:35;;;;;;;2.17;1.95;;;;;;;5.85;73.15;96587.81;5034977;28;20040;-95
2020/12/04 05:14:17;;;;;;;1.60;1.27;;;;;;;5.87;72.40;96576.25;5053919;28;20029;-93
2020/12/04 05:16:45;;;;;;;1.80;1.45;;;;;;;5.90;71.53;96582.91;5046117;28;20009;-94
2020/12/04 05:19:11;;;;;;;1.48;1.38;;;;;;;5.96;71.83;96582.25;5060153;28;20010;-95
2020/12/04 05:21:38;;;;;;;1.63;1.52;;;;;;;6.00;72.00;96582.75;5060067;28;20018;-95
2020/12/04 05:24:05;;;;;;;1.38;1.27;;;;;;;5.94;71.18;96581.59;5059903;28;20018;-93
2020/12/04 05:26:33;;;;;;;1.55;1.45;;;;;;;5.91;72.50;96587.16;5059382;28;20038;-95
2020/12/04 05:28:59;;;;;;;1.30;1.00;;;;;;;6.02;71.17;96581.56;5042393;28;20025;-95
2020/12/04 05:31:29;;;;;;;1.60;1.27;;;;;;;6.08;70.41;96585.31;5036220;28;20022;-96
2020/12/04 05:33:55;;;;;;;1.27;1.00;;;;;;;6.11;70.27;96582.38;5035364;28;20018;-96
2020/12/04 05:36:33;;;;;;;1.05;0.98;;;;;;;5.85;71.74;96588.63;5035027;28;20029;-96
2020/12/04 05:38:58;;;;;;;1.02;0.90;;;;;;;5.93;71.89;96588.59;5035159;28;20029;-94
2020/12/04 05:41:25;;;;;;;0.93;0.70;;;;;;;6.06;71.86;96589.88;5035047;28;20052;-96
2020/12/04 05:43:53;;;;;;;1.48;0.90;;;;;;;5.92;71.99;96588.75;5034808;28;20109;-95
2020/12/04 05:46:23;;;;;;;1.98;0.60;;;;;;;5.89;72.91;96589.09;5034775;28;20112;-95
2020/12/04 05:48:56;;;;;;;1.10;0.70;;;;;;;6.09;72.21;96600.75;5035371;28;20017;-96
2020/12/04 05:51:27;;;;;;;1.35;0.60;;;;;;;6.20;72.08;96604.81;5034910;28;20531;-96
2020/12/04 05:53:53;;;;;;;1.00;0.70;;;;;;;6.10;71.97;96604.16;5035247;28;20395;-96
2020/12/04 05:56:20;;;;;;;1.88;0.77;;;;;;;6.13;72.27;96601.25;5035338;28;20124;-96
2020/12/04 05:58:47;;;;;;;1.10;0.68;;;;;;;6.02;71.66;96597.19;5035603;28;20108;-96
2020/12/04 06:01:16;;;;;;;1.27;0.80;;;;;;;5.98;72.95;96608.13;5035558;28;20026;-96
2020/12/04 06:03:42;;;;;;;1.40;0.60;;;;;;;6.01;73.27;96608.63;5035153;28;20029;-96
2020/12/04 06:06:09;;;;;;;2.33;0.65;;;;;;;5.99;72.26;96599.34;5034999;28;20030;-96
2020/12/04 06:08:40;;;;;;;0.50;0.50;;;;;;;6.05;72.49;96611.69;5035339;28;20029;-96
2020/12/04 06:11:07;;;;;;;1.00;0.60;;;;;;;6.10;72.60;96606.78;5035790;28;20415;-96
2020/12/04 06:13:36;;;;;;;1.13;0.80;;;;;;;5.89;72.90;96610.75;5036252;28;20034;-96
2020/12/04 06:16:11;;;;;;;0.80;0.60;;;;;;;6.03;73.95;96624.88;5035529;28;20018;-95
2020/12/04 06:18:37;;;;;;;0.45;0.45;;;;;;;6.03;74.09;96637.09;5035440;28;20022;-95
2020/12/04 06:21:02;;;;;;;1.30;0.65;;;;;;;5.90;75.53;96627.97;5036071;28;20044;-96
2020/12/04 06:23:28;;;;;;;1.88;0.70;;;;;;;6.05;74.13;96629.94;5036351;28;20037;-95
2020/12/04 06:25:58;;;;;;;0.52;0.50;;;;;;;6.06;74.04;96631.53;5036563;28;20072;-96
2020/12/04 06:28:27;;;;;;;0.60;0.50;;;;;;;5.93;74.26;96635.47;5039568;28;20361;-96
2020/12/04 06:31:13;;;;;;;1.88;0.90;;;;;;;5.83;75.01;96634.84;5045950;28;20022;-96
2020/12/04 06:33:47;;;;;;;2.40;0.60;;;;;;;5.98;74.90;96639.38;5039722;28;20033;-96
2020/12/04 06:36:33;;;;;;;1.95;0.45;;;;;;;6.03;74.99;96652.72;5038141;28;20083;-96
2020/12/04 06:39:02;;;;;;;1.77;0.90;;;;;;;5.79;75.24;96643.16;5041780;28;20060;-96
2020/12/04 06:41:35;;;;;;;1.73;0.75;;;;;;;5.81;76.13;96655.03;5152112;22;20109;-96
2020/12/04 06:44:03;;;;;;;;;;;;;;;5.99;75.26;96651.44;5050733;28;20030;-96
2020/12/04 06:46:43;;;;;;;0.60;0.50;;;;;;;5.92;75.02;96626.03;5354789;22;19925;-96
2020/12/04 06:52:12;;;;;;;0.47;0.40;;;;;;;5.80;76.74;96649.97;5052428;28;20099;-96
2020/12/04 07:02:16;;;;;;;0.90;0.45;;;;;;;6.39;74.07;96634.81;5062801;28;20052;-95
2020/12/04 07:04:46;;;;;;;0.40;0.40;;;;;;;6.26;74.16;96650.19;5060174;28;20444;-96
2020/12/04 07:07:20;;;;;;;1.17;0.55;;;;;;;6.06;73.59;96627.16;5069067;28;20055;-96
2020/12/04 07:09:57;;;;;;;0.63;0.50;;;;;;;6.39;73.40;96629.59;5069515;28;20034;-96
2020/12/04 07:12:25;;;;;;;0.45;0.40;;;;;;;6.46;73.07;96627.97;5071651;28;20016;-96
2020/12/04 07:14:52;;;;;;;0.68;0.40;;;;;;;6.29;72.98;96631.63;5073483;28;20039;-96
2020/12/04 07:17:19;;;;;;;3.67;0.38;;;;;;;6.21;73.59;96658.50;5160150;22;20052;-96
2020/12/04 07:19:48;;;;;;;0.30;0.30;;;;;;;6.22;73.62;96631.50;5060885;28;20021;-96
2020/12/04 07:22:17;;;;;;;0.65;0.40;;;;;;;6.33;73.41;96643.31;5021538;28;20047;-95
2020/12/04 07:24:44;;;;;;;3.25;0.50;;;;;;;6.51;72.92;96650.88;5038919;28;20480;-96
2020/12/04 07:27:13;;;;;;;0.77;0.50;;;;;;;6.59;72.66;96658.66;5037763;28;20025;-96
2020/12/04 07:29:39;;;;;;;0.82;0.43;;;;;;;6.39;74.09;96681.72;5043044;28;20135;-96
2020/12/04 07:32:05;;;;;;;0.57;0.50;;;;;;;6.86;72.14;96685.25;5049389;22;20079;-89
2020/12/04 07:34:35;;;;;;;1.73;0.52;;;;;;;6.21;74.03;96688.97;5041989;28;20079;-89
2020/12/04 07:37:02;;;;;;;0.70;0.50;;;;;;;6.66;73.46;96693.50;5047114;28;20029;-88
2020/12/04 07:39:33;;;;;;;1.58;0.57;;;;;;;6.79;72.70;96689.50;5032616;28;20036;-89
2020/12/04 07:42:00;;;;;;;1.05;0.47;;;;;;;6.64;72.05;96695.47;5051657;28;20021;-89
2020/12/04 07:44:31;;;;;;;0.90;0.47;;;;;;;6.89;72.23;96701.38;5051790;28;20086;-90
2020/12/04 07:47:03;;;;;;;1.55;0.43;;;;;;;6.99;70.86;96706.38;5051516;28;20501;-90
2020/12/04 07:49:30;;;;;;;0.40;0.40;;;;;;;6.93;71.70;96702.66;5051392;28;20043;-89
2020/12/04 07:52:08;;;;;;;1.75;0.50;;;;;;;6.94;71.26;96706.06;5051418;28;20036;-89
2020/12/04 07:54:34;;;;;;;0.57;0.30;;;;;;;6.80;71.35;96712.81;5051636;28;20474;-89
2020/12/04 07:57:01;;;;;;;0.30;0.30;;;;;;;6.98;70.71;96717.78;5050844;28;20029;-91
2020/12/04 07:59:31;;;;;;;0.38;0.38;;;;;;;6.94;69.93;96716.50;5033123;28;20124;-89
2020/12/04 08:01:59;;;;;;;1.05;0.55;;;;;;;7.09;70.49;96721.75;5051299;28;20101;-91
2020/12/04 08:04:24;;;;;;;0.65;0.30;;;;;;;7.15;70.80;96721.91;5051232;28;20036;-88
2020/12/04 08:06:50;;;;;;;3.08;0.50;;;;;;;7.03;70.48;96723.28;5051586;28;20025;-92
2020/12/04 08:09:18;;;;;;;0.82;0.40;;;;;;;7.09;70.63;96733.03;5051214;28;20025;-88
2020/12/04 08:11:50;;;;;;;1.55;0.50;;;;;;;7.10;69.42;96728.63;5051592;28;20451;-88
2020/12/04 08:14:22;;;;;;;;;;;;;;;6.78;71.13;96740.06;5051159;28;20052;-89
2020/12/04 08:16:47;;;;;;;1.90;0.60;;;;;;;6.87;71.01;96732.03;5051210;28;20022;-89
2020/12/04 08:19:14;;;;;;;0.73;0.50;;;;;;;7.05;70.39;96731.75;5051062;28;20290;-88
2020/12/04 08:22:31;;;;;;;2.55;0.77;;;;;;;7.26;69.63;96753.78;5033291;28;20029;-88
2020/12/04 08:25:07;;;;;;;2.33;0.50;;;;;;;7.05;69.78;96751.78;4970086;28;20485;-90
2020/12/04 08:27:40;;;;;;;0.93;0.60;;;;;;;7.21;69.90;96756.09;4970073;28;20034;-88
2020/12/04 08:30:18;;;;;;;4.22;0.80;;;;;;;7.03;69.31;96754.59;5022983;28;20498;-89
2020/12/04 08:32:46;;;;;;;3.55;0.50;;;;;;;7.25;69.01;96770.44;5061694;22;20049;-91
2020/12/04 08:35:18;;;;;;;4.68;0.80;;;;;;;7.23;69.05;96775.03;5048283;28;20033;-94
2020/12/04 08:37:47;;;;;;;3.80;1.15;;;;;;;7.14;69.55;96756.78;5035485;28;20025;-94
2020/12/04 08:40:20;;;;;;;2.35;0.50;;;;;;;7.39;68.52;96767.09;5038488;28;20079;-95
2020/12/04 08:42:46;;;;;;;4.03;0.75;;;;;;;7.37;66.94;96771.66;5046905;28;20024;-94
2020/12/04 08:45:11;;;;;;;2.50;0.70;;;;;;;7.42;67.61;96760.69;5040306;28;20028;-95
2020/12/04 08:47:46;;;;;;;8.00;1.55;;;;;;;7.29;67.49;96764.72;5039323;28;20017;-96
2020/12/04 08:50:18;;;;;;;1.10;0.70;;;;;;;7.46;69.21;96775.84;5029305;28;20028;-95
2020/12/04 08:52:49;;;;;;;2.05;0.60;;;;;;;7.38;67.68;96762.84;5034382;28;20028;-94
2020/12/04 08:55:26;;;;;;;4.45;1.15;;;;;;;7.42;68.11;96771.16;5033233;28;20033;-95
2020/12/04 08:57:54;;;;;;;1.67;0.95;;;;;;;7.47;67.97;96772.25;5024490;28;20021;-94
2020/12/04 09:00:22;;;;;;;2.53;0.82;;;;;;;7.41;68.40;96764.31;5022018;28;20037;-93
2020/12/04 09:02:48;;;;;;;6.68;0.85;;;;;;;7.17;69.60;96786.13;5039757;28;20049;-95
2020/12/04 09:05:16;;;;;;;4.85;0.95;;;;;;;6.96;67.56;96790.16;5043841;28;20021;-95
2020/12/04 09:07:43;;;;;;;3.90;1.20;;;;;;;7.11;69.43;96785.84;5036494;28;20125;-93
2020/12/04 09:10:11;;;;;;;3.50;1.20;;;;;;;7.09;66.12;96782.59;5024604;28;20035;-95
2020/12/04 09:12:37;;;;;;;2.88;0.90;;;;;;;7.47;66.72;96803.56;5044643;28;20021;-94
2020/12/04 09:15:05;;;;;;;4.80;2.10;;;;;;;7.44;67.27;96790.84;5054624;28;20010;-93
2020/12/04 09:17:31;;;;;;;2.47;0.85;;;;;;;7.62;66.86;96810.66;5039873;28;20102;-94
2020/12/04 09:19:56;;;;;;;2.75;0.88;;;;;;;7.53;66.95;96795.03;5042362;28;20009;-95
2020/12/04 09:22:22;;;;;;;3.35;0.85;;;;;;;7.57;66.82;96805.97;5046844;28;20085;-93
2020/12/04 09:24:47;;;;;;;6.38;1.35;;;;;;;7.67;66.55;96809.16;5043468;28;20109;-93
2020/12/04 09:27:13;;;;;;;3.70;1.15;;;;;;;7.56;64.56;96801.72;5048358;28;20505;-91
2020/12/04 09:29:39;;;;;;;2.83;1.30;;;;;;;7.49;68.00;96812.03;5070278;28;20037;-93
2020/12/04 09:32:13;;;;;;;5.65;1.55;;;;;;;7.40;65.11;96820.91;5079865;22;20040;-94
2020/12/04 09:34:41;;;;;;;5.10;1.05;;;;;;;7.59;64.93;96827.47;5067519;28;20020;-96
2020/12/04 09:37:17;;;;;;;7.78;1.00;;;;;;;7.51;66.06;96824.94;5041270;28;20033;-94
2020/12/04 09:39:47;;;;;;;4.32;1.58;;;;;;;7.62;62.88;96826.31;5046405;28;20017;-96
2020/12/04 09:47:32;;;;;;;4.80;0.80;;;;;;;6.90;64.77;96791.63;5964595;22;20019;-96
2020/12/04 09:49:58;;;;;;;3.50;0.73;;;;;;;7.26;62.85;96774.66;5148126;22;20028;-96
2020/12/04 09:52:24;;;;;;;2.20;0.50;;;;;;;7.54;61.39;96821.94;5071756;28;20029;-95
2020/12/04 09:54:50;;;;;;;2.95;0.85;;;;;;;7.63;60.78;96791.41;5073583;28;20028;-95
2020/12/04 10:02:26;;;;;;;4.28;1.08;;;;;;;7.43;62.52;96806.72;5947188;22;20063;-94
2020/12/04 10:04:55;;;;;;;6.72;1.02;;;;;;;7.46;60.44;96828.03;5880533;22;20053;-95
2020/12/04 10:25:28;;;;;;;2.85;0.80;;;;;;;7.39;60.56;96814.06;5074230;28;20090;-96
2020/12/04 10:35:39;;;;;;;6.20;0.90;;;;;;;7.83;59.14;96815.25;5397503;22;20048;-95
2020/12/04 10:38:05;;;;;;;6.22;1.50;;;;;;;8.21;58.94;96857.88;5072811;28;20092;-96
2020/12/04 10:43:05;;;;;;;2.58;1.13;;;;;;;7.89;59.23;96825.78;5533651;22;20037;-96
2020/12/04 10:45:31;;;;;;;5.95;1.20;;;;;;;7.83;61.23;96850.00;5070882;28;20100;-96
2020/12/04 10:47:57;;;;;;;8.73;1.52;;;;;;;7.93;58.73;96840.13;5058998;28;20041;-96
2020/12/04 10:50:27;;;;;;;6.68;1.15;;;;;;;7.95;61.38;96817.25;5194366;22;20110;-95
2020/12/04 10:52:53;;;;;;;5.28;1.02;;;;;;;8.03;59.78;96847.72;5059163;28;20043;-96
2020/12/04 10:55:18;;;;;;;8.18;1.65;;;;;;;8.04;59.98;96830.28;5063139;28;20020;-92
2020/12/04 10:57:44;;;;;;;5.40;0.98;;;;;;;8.45;59.67;96863.91;5039221;28;20462;-92
2020/12/04 11:00:09;;;;;;;7.22;1.35;;;;;;;8.49;59.05;96854.72;5036743;28;20083;-91
2020/12/04 11:02:37;;;;;;;15.50;1.85;;;;;;;8.44;59.16;96857.06;5051999;28;20025;-92
2020/12/04 11:07:46;;;;;;;5.70;1.08;;;;;;;8.33;59.63;96856.47;5056299;28;20027;-93
2020/12/04 11:10:11;;;;;;;5.57;1.20;;;;;;;8.31;60.18;96852.41;5035877;28;20116;-93
2020/12/04 11:12:37;;;;;;;6.88;1.55;;;;;;;8.37;61.36;96846.47;5044633;28;20020;-92
2020/12/04 11:15:03;;;;;;;8.88;1.20;;;;;;;8.71;60.86;96853.03;5056909;28;20474;-93
2020/12/04 11:17:28;;;;;;;5.75;1.88;;;;;;;8.55;60.39;96848.78;5036366;28;20048;-92
2020/12/04 11:19:53;;;;;;;9.05;1.15;;;;;;;8.58;61.38;96855.47;5050006;28;20410;-91
2020/12/04 11:22:19;;;;;;;5.55;1.83;;;;;;;8.34;60.20;96852.88;5044980;28;20104;-93
2020/12/04 11:24:44;;;;;;;5.20;1.15;;;;;;;8.38;59.55;96837.63;5030971;28;20037;-93
2020/12/04 11:27:10;;;;;;;6.15;1.27;;;;;;;8.25;62.08;96848.69;5038639;28;20022;-92
2020/12/04 11:29:35;;;;;;;9.18;3.15;;;;;;;8.41;60.70;96855.63;5020243;28;20025;-91
2020/12/04 11:32:01;;;;;;;6.53;1.13;;;;;;;8.50;61.84;96857.16;5028116;28;20518;-92
2020/12/04 11:34:26;;;;;;;5.32;1.10;;;;;;;8.58;61.70;96858.88;5030115;28;20029;-95
2020/12/04 11:36:52;;;;;;;6.20;1.67;;;;;;;8.80;60.82;96856.38;5025379;28;20025;-94
2020/12/04 11:39:17;;;;;;;4.07;0.82;;;;;;;9.59;58.60;96855.75;5037405;28;20021;-92
2020/12/04 11:41:43;;;;;;;6.63;1.48;;;;;;;9.09;59.47;96851.13;5019329;28;20026;-93
2020/12/04 11:44:08;;;;;;;9.73;1.83;;;;;;;9.33;60.54;96851.81;5020729;28;20521;-92
2020/12/04 11:46:33;;;;;;;5.13;1.20;;;;;;;8.95;60.30;96851.16;5025054;28;20029;-93
2020/12/04 11:48:59;;;;;;;11.20;1.50;;;;;;;9.51;58.97;96852.22;5039027;28;20032;-93
2020/12/04 11:51:24;;;;;;;5.35;1.15;;;;;;;9.47;58.77;96842.31;5019452;28;20113;-92
2020/12/04 11:53:49;;;;;;;5.95;1.00;;;;;;;9.21;60.78;96838.41;5039061;28;20025;-93
2020/12/04 11:56:17;;;;;;;8.38;2.15;;;;;;;9.15;61.04;96854.03;5028093;28;20025;-93
2020/12/04 11:58:43;;;;;;;4.75;1.40;;;;;;;9.50;59.60;96831.47;5026311;28;20036;-92
2020/12/04 12:01:08;;;;;;;8.07;1.88;;;;;;;9.42;59.50;96850.72;5025139;28;20022;-92
2020/12/04 12:03:34;;;;;;;18.52;1.70;;;;;;;8.94;58.62;96845.09;5042808;28;20033;-92
2020/12/04 12:05:59;;;;;;;4.13;1.02;;;;;;;9.47;59.61;96852.78;5037763;28;20383;-93
2020/12/04 12:08:24;;;;;;;9.52;1.33;;;;;;;9.40;59.21;96849.28;5046851;28;20045;-94
2020/12/04 12:10:50;;;;;;;9.82;2.33;;;;;;;9.44;59.50;96848.75;5046301;28;20107;-93
2020/12/04 12:13:15;;;;;;;4.30;1.17;;;;;;;9.63;59.42;96843.91;5037053;28;20021;-94
2020/12/04 12:15:41;;;;;;;6.82;1.85;;;;;;;9.50;59.23;96840.16;5023330;28;20029;-94
2020/12/04 12:18:06;;;;;;;8.55;1.35;;;;;;;9.22;57.76;96840.03;5025725;28;20029;-96
2020/12/04 12:20:31;;;;;;;10.70;1.70;;;;;;;9.23;59.28;96848.69;5023306;28;20115;-94
2020/12/04 12:22:57;;;;;;;9.48;1.52;;;;;;;9.52;58.14;96835.53;5034100;28;20055;-94
2020/12/04 12:25:22;;;;;;;7.25;1.73;;;;;;;10.25;56.63;96845.91;5048897;28;20029;-94
2020/12/04 12:27:48;;;;;;;7.70;1.70;;;;;;;10.94;56.10;96854.03;5043663;28;20066;-96
2020/12/04 12:30:13;;;;;;;6.95;1.50;;;;;;;10.60;54.63;96861.69;5051762;28;20028;-95
2020/12/04 12:32:39;;;;;;;6.88;1.60;;;;;;;10.44;57.13;96854.13;5033529;28;20061;-94
2020/12/04 12:35:13;;;;;;;9.25;1.67;;;;;;;11.29;53.71;96852.19;5027605;28;20368;-94